Time;durP1;ratioP1;P1;durP2;ratioP2;P2;SDS_P1;SDS_P2;PMS_P1;PMS_P2;Temp;Humidity;BMP_temperature;BMP_pressure;BME280_temperature;BME280_humidity;BME280_pressure;Samples;Min_cycle;Max_cycle;Signal;HPM_P1;HPM_P2
2021/04/24 00:01:43;;;;;;;;;;;19.80;57.90;;;;;;5054175;28;2163;-64
2021/04/24 00:04:08;;;;;;;;;;;19.80;58.50;;;;;;5054554;28;1716;-65
2021/04/24 00:06:34;;;;;;;;;;;19.70;57.80;;;;;;5054138;28;1268;-65
2021/04/24 00:08:59;;;;;;;;;;;19.80;57.90;;;;;;5054446;28;1447;-66
2021/04/24 00:11:25;;;;;;;;;;;19.70;57.90;;;;;;5054345;28;1357;-64
2021/04/24 00:13:50;;;;;;;;;;;19.70;57.90;;;;;;5049122;28;1419;-65
2021/04/24 00:16:16;;;;;;;;;;;19.70;57.90;;;;;;5053105;28;1581;-64
2021/04/24 00:18:41;;;;;;;;;;;19.70;57.90;;;;;;5052967;28;1964;-64
2021/04/24 00:21:07;;;;;;;;;;;19.70;57.90;;;;;;5054208;28;1650;-65
2021/04/24 00:23:32;;;;;;;;;;;19.70;57.90;;;;;;5043230;28;1494;-66
2021/04/24 00:25:58;;;;;;;;;;;19.70;57.90;;;;;;5036015;28;1365;-64
2021/04/24 00:28:23;;;;;;;;;;;19.70;58.00;;;;;;5054063;28;1238;-64
2021/04/24 00:30:49;;;;;;;;;;;19.70;58.00;;;;;;5054076;28;1377;-66
2021/04/24 00:33:14;;;;;;;;;;;19.70;58.00;;;;;;5054171;28;1696;-65
2021/04/24 00:35:40;;;;;;;;;;;19.70;58.00;;;;;;5053666;28;1683;-66
2021/04/24 00:38:05;;;;;;;;;;;19.70;58.00;;;;;;5036214;28;1406;-65
2021/04/24 00:40:30;;;;;;;;;;;19.70;58.00;;;;;;5053908;28;1953;-64
2021/04/24 00:42:56;;;;;;;;;;;19.60;58.50;;;;;;5053957;28;1663;-65
2021/04/24 00:45:22;;;;;;;;;;;19.70;58.00;;;;;;5035746;28;1658;-64
2021/04/24 00:47:48;;;;;;;;;;;19.70;58.00;;;;;;5035921;28;1500;-65
2021/04/24 00:50:15;;;;;;;;;;;19.70;58.00;;;;;;5053546;28;1378;-64
2021/04/24 00:52:40;;;;;;;;;;;19.70;58.10;;;;;;5053526;28;1199;-64
2021/04/24 00:55:06;;;;;;;;;;;19.60;58.00;;;;;;5053442;28;1183;-65
2021/04/24 00:57:31;;;;;;;;;;;19.60;58.00;;;;;;5058353;28;1416;-64
2021/04/24 00:59:56;;;;;;;;;;;19.60;58.00;;;;;;5055434;28;1898;-65
2021/04/24 01:02:22;;;;;;;;;;;19.60;58.00;;;;;;5055469;28;1738;-65
2021/04/24 01:04:47;;;;;;;;;;;19.60;58.00;;;;;;5062037;28;784;-64
2021/04/24 01:07:13;;;;;;;;;;;19.60;58.10;;;;;;5052902;28;1187;-64
2021/04/24 01:09:38;;;;;;;;;;;19.60;58.10;;;;;;5052621;28;1452;-66
2021/04/24 01:12:04;;;;;;;;;;;19.60;58.10;;;;;;5035580;28;1393;-64
2021/04/24 01:14:29;;;;;;;;;;;19.60;58.10;;;;;;5042596;28;1366;-64
2021/04/24 01:16:55;;;;;;;;;;;19.60;58.10;;;;;;5067430;28;1633;-65
2021/04/24 01:19:23;;;;;;;;;;;19.60;58.10;;;;;;5055099;28;1902;-65
2021/04/24 01:21:48;;;;;;;;;;;19.60;58.10;;;;;;5053924;28;1413;-64
2021/04/24 01:24:14;;;;;;;;;;;19.60;58.10;;;;;;5053147;28;1384;-64
2021/04/24 01:26:39;;;;;;;;;;;19.60;58.20;;;;;;5052862;28;1240;-64
2021/04/24 01:29:05;;;;;;;;;;;19.60;58.20;;;;;;5035451;28;1364;-66
2021/04/24 01:31:33;;;;;;;;;;;19.60;58.20;;;;;;5052908;28;1409;-65
2021/04/24 01:33:59;;;;;;;;;;;19.60;58.20;;;;;;5053053;28;1123;-66
2021/04/24 01:36:24;;;;;;;;;;;19.60;58.20;;;;;;5034856;28;1190;-65
2021/04/24 01:38:49;;;;;;;;;;;19.60;58.20;;;;;;5052867;28;1890;-65
2021/04/24 01:41:15;;;;;;;;;;;19.60;58.20;;;;;;5052823;28;1389;-65
2021/04/24 01:43:40;;;;;;;;;;;19.60;58.20;;;;;;5034854;28;1389;-65
2021/04/24 01:46:06;;;;;;;;;;;19.60;58.10;;;;;;5051305;28;1606;-64
2021/04/24 01:48:31;;;;;;;;;;;19.60;58.10;;;;;;5052947;28;1649;-65
2021/04/24 01:50:57;;;;;;;;;;;19.60;58.10;;;;;;5052530;28;1508;-63
2021/04/24 01:53:22;;;;;;;;;;;19.60;58.10;;;;;;5052927;28;1526;-64
2021/04/24 01:55:48;;;;;;;;;;;19.60;58.00;;;;;;5034777;28;1650;-64
2021/04/24 01:58:15;;;;;;;;;;;19.60;58.00;;;;;;5035207;28;1614;-64
2021/04/24 02:00:42;;;;;;;;;;;19.60;58.00;;;;;;5034464;28;1902;-63
2021/04/24 02:03:08;;;;;;;;;;;19.60;58.00;;;;;;5052538;28;1170;-64
2021/04/24 02:05:34;;;;;;;;;;;19.70;58.00;;;;;;5034510;28;1721;-63
2021/04/24 02:08:01;;;;;;;;;;;19.70;57.90;;;;;;5063025;28;1662;-64
2021/04/24 02:10:27;;;;;;;;;;;19.70;57.90;;;;;;5072816;28;1707;-64
2021/04/24 02:12:52;;;;;;;;;;;19.70;57.90;;;;;;5072847;28;1446;-64
2021/04/24 02:15:18;;;;;;;;;;;19.70;57.90;;;;;;5054930;28;1443;-64
2021/04/24 02:17:43;;;;;;;;;;;19.70;57.90;;;;;;5052568;28;1695;-64
2021/04/24 02:20:09;;;;;;;;;;;19.70;57.80;;;;;;5069596;28;1965;-64
2021/04/24 02:22:34;;;;;;;;;;;19.70;57.80;;;;;;5067673;28;1383;-64
2021/04/24 02:25:00;;;;;;;;;;;19.70;57.80;;;;;;5053964;28;1283;-64
2021/04/24 02:27:26;;;;;;;;;;;19.70;57.80;;;;;;5051908;28;1200;-64
2021/04/24 02:29:54;;;;;;;;;;;19.70;57.80;;;;;;5053599;28;1459;-64
2021/04/24 02:32:20;;;;;;;;;;;19.70;57.80;;;;;;5045662;28;1165;-64
2021/04/24 02:34:45;;;;;;;;;;;19.70;57.80;;;;;;5049422;28;1212;-65
2021/04/24 02:37:11;;;;;;;;;;;19.70;57.70;;;;;;5053078;28;1216;-64
2021/04/24 02:39:37;;;;;;;;;;;19.70;57.60;;;;;;5068920;28;1955;-64
2021/04/24 02:42:03;;;;;;;;;;;19.80;57.70;;;;;;5053708;28;1264;-64
2021/04/24 02:44:29;;;;;;;;;;;19.80;57.60;;;;;;5043786;28;1425;-64
2021/04/24 02:46:55;;;;;;;;;;;19.90;57.50;;;;;;5040689;28;2731;-63
2021/04/24 02:49:21;;;;;;;;;;;20.00;57.40;;;;;;5050174;28;1314;-64
2021/04/24 02:51:46;;;;;;;;;;;20.10;57.30;;;;;;5075599;28;1351;-66
2021/04/24 02:54:12;;;;;;;;;;;20.20;57.10;;;;;;5075476;28;1063;-64
2021/04/24 02:56:37;;;;;;;;;;;20.30;56.80;;;;;;5052761;28;1157;-64
2021/04/24 02:59:02;;;;;;;;;;;20.40;56.60;;;;;;5052463;28;1906;-65
2021/04/24 03:01:28;;;;;;;;;;;20.50;57.00;;;;;;5055351;28;1468;-64
2021/04/24 03:03:53;;;;;;;;;;;20.50;56.20;;;;;;5055214;28;1159;-65
2021/04/24 03:06:19;;;;;;;;;;;20.60;56.00;;;;;;5055290;28;1218;-66
2021/04/24 03:08:44;;;;;;;;;;;20.70;55.90;;;;;;5055657;28;1146;-64
2021/04/24 03:11:10;;;;;;;;;;;20.80;55.80;;;;;;5055491;28;1205;-64
2021/04/24 03:13:35;;;;;;;;;;;20.80;55.60;;;;;;5055137;28;1167;-65
2021/04/24 03:16:00;;;;;;;;;;;20.90;55.50;;;;;;5055075;28;1084;-66
2021/04/24 03:18:26;;;;;;;;;;;20.90;55.30;;;;;;5037307;28;1104;-65
2021/04/24 03:20:51;;;;;;;;;;;20.90;55.30;;;;;;5055145;28;1949;-65
2021/04/24 03:23:17;;;;;;;;;;;21.00;55.20;;;;;;5044521;28;1096;-64
2021/04/24 03:25:42;;;;;;;;;;;21.00;55.10;;;;;;5037086;28;1151;-65
2021/04/24 03:28:08;;;;;;;;;;;21.10;55.00;;;;;;5054969;28;1119;-66
2021/04/24 03:30:33;;;;;;;;;;;21.10;55.00;;;;;;5055012;28;1200;-65
2021/04/24 03:32:58;;;;;;;;;;;21.10;54.90;;;;;;5054099;28;1072;-64
2021/04/24 03:35:24;;;;;;;;;;;21.10;54.90;;;;;;5054678;28;1093;-65
2021/04/24 03:37:49;;;;;;;;;;;21.20;54.80;;;;;;5037330;28;1136;-64
2021/04/24 03:40:15;;;;;;;;;;;21.10;54.70;;;;;;5054883;28;1959;-64
2021/04/24 03:42:43;;;;;;;;;;;21.20;54.80;;;;;;5037111;28;1116;-65
2021/04/24 03:45:19;;;;;;;;;;;21.20;54.80;;;;;;5054600;28;1048;-64
2021/04/24 03:47:48;;;;;;;;;;;21.20;54.80;;;;;;5038419;28;1128;-64
2021/04/24 03:50:14;;;;;;;;;;;21.20;54.80;;;;;;5036852;28;1284;-64
2021/04/24 03:52:39;;;;;;;;;;;21.20;54.80;;;;;;5036916;28;1160;-64
2021/04/24 03:55:05;;;;;;;;;;;21.20;54.70;;;;;;5054447;28;1073;-66
2021/04/24 03:57:30;;;;;;;;;;;21.20;54.80;;;;;;5036868;28;1151;-64
2021/04/24 03:59:55;;;;;;;;;;;21.20;54.80;;;;;;5054195;28;1906;-64
2021/04/24 04:02:21;;;;;;;;;;;21.20;54.80;;;;;;5054406;28;1693;-66
2021/04/24 04:04:47;;;;;;;;;;;21.20;54.80;;;;;;5054590;28;1127;-64
2021/04/24 04:07:12;;;;;;;;;;;21.20;54.80;;;;;;5054159;28;1297;-64
2021/04/24 04:09:38;;;;;;;;;;;21.20;54.80;;;;;;5054371;28;1331;-65
2021/04/24 04:12:03;;;;;;;;;;;21.20;54.90;;;;;;5054258;28;1179;-65
2021/04/24 04:14:29;;;;;;;;;;;21.20;54.90;;;;;;5043816;28;1116;-64
2021/04/24 04:16:54;;;;;;;;;;;21.20;55.00;;;;;;5053075;28;1123;-64
2021/04/24 04:19:19;;;;;;;;;;;21.20;55.00;;;;;;5054020;28;1973;-65
2021/04/24 04:21:45;;;;;;;;;;;21.10;55.00;;;;;;5052843;28;1077;-64
2021/04/24 04:24:10;;;;;;;;;;;21.10;55.10;;;;;;5044024;28;1143;-64
2021/04/24 04:26:36;;;;;;;;;;;21.10;55.10;;;;;;5053683;28;1115;-65
2021/04/24 04:29:01;;;;;;;;;;;21.10;55.10;;;;;;5053828;28;1139;-64
2021/04/24 04:31:27;;;;;;;;;;;21.10;55.20;;;;;;5053726;28;1268;-64
2021/04/24 04:33:52;;;;;;;;;;;21.10;55.20;;;;;;5036231;28;1073;-65
2021/04/24 04:36:17;;;;;;;;;;;21.00;55.20;;;;;;5053483;28;1108;-65
2021/04/24 04:38:43;;;;;;;;;;;21.00;55.30;;;;;;5053819;28;1959;-64
2021/04/24 04:41:08;;;;;;;;;;;21.00;55.30;;;;;;5053502;28;1306;-65
2021/04/24 04:43:34;;;;;;;;;;;21.00;55.40;;;;;;5053840;28;1147;-64
2021/04/24 04:45:59;;;;;;;;;;;21.00;55.40;;;;;;5052432;28;1065;-64
2021/04/24 04:48:25;;;;;;;;;;;21.00;55.40;;;;;;5053606;28;1132;-65
2021/04/24 04:50:50;;;;;;;;;;;21.00;55.50;;;;;;5053347;28;1379;-64
2021/04/24 04:53:16;;;;;;;;;;;20.90;55.50;;;;;;5053684;28;1092;-65
2021/04/24 04:55:41;;;;;;;;;;;20.90;55.50;;;;;;5053466;28;1175;-65
2021/04/24 04:58:07;;;;;;;;;;;20.90;55.60;;;;;;5053346;28;997;-64
2021/04/24 05:00:32;;;;;;;;;;;20.90;55.60;;;;;;5035353;28;1898;-65
2021/04/24 05:02:57;;;;;;;;;;;20.90;55.60;;;;;;5053435;28;1049;-66
2021/04/24 05:05:23;;;;;;;;;;;20.90;55.60;;;;;;5051644;28;1186;-64
2021/04/24 05:07:49;;;;;;;;;;;20.90;55.70;;;;;;5053296;28;1578;-64
2021/04/24 05:10:15;;;;;;;;;;;20.80;55.70;;;;;;5035348;28;1389;-64
2021/04/24 05:12:41;;;;;;;;;;;20.80;55.70;;;;;;5035311;28;1108;-65
2021/04/24 05:15:07;;;;;;;;;;;20.80;55.80;;;;;;5052638;28;1060;-65
2021/04/24 05:17:32;;;;;;;;;;;20.80;55.80;;;;;;5052847;28;1045;-66
2021/04/24 05:19:58;;;;;;;;;;;20.80;55.80;;;;;;5053060;28;1921;-64
2021/04/24 05:22:23;;;;;;;;;;;20.80;55.80;;;;;;5046629;28;1076;-65
2021/04/24 05:24:48;;;;;;;;;;;20.90;55.80;;;;;;5048419;28;1315;-66
2021/04/24 05:27:14;;;;;;;;;;;20.90;55.70;;;;;;5052758;28;1064;-64
2021/04/24 05:29:39;;;;;;;;;;;20.90;55.70;;;;;;5052662;28;1263;-65
2021/04/24 05:32:05;;;;;;;;;;;20.90;55.70;;;;;;5051846;28;1183;-66
2021/04/24 05:34:34;;;;;;;;;;;20.90;55.70;;;;;;5035083;28;1355;-66
2021/04/24 05:37:00;;;;;;;;;;;20.90;55.60;;;;;;5035319;28;1080;-65
2021/04/24 05:39:25;;;;;;;;;;;20.90;55.70;;;;;;5052550;28;1898;-65
2021/04/24 05:41:51;;;;;;;;;;;20.90;55.70;;;;;;5052742;28;1135;-64
2021/04/24 05:44:16;;;;;;;;;;;20.90;55.70;;;;;;5052661;28;1104;-64
2021/04/24 05:46:42;;;;;;;;;;;20.90;55.70;;;;;;5052484;28;1061;-65
2021/04/24 05:49:07;;;;;;;;;;;20.90;55.70;;;;;;5052645;28;1175;-65
2021/04/24 05:51:32;;;;;;;;;;;20.90;55.70;;;;;;5053112;28;1291;-67
2021/04/24 05:53:58;;;;;;;;;;;20.90;55.80;;;;;;5052872;28;1187;-66
2021/04/24 05:56:23;;;;;;;;;;;20.90;55.80;;;;;;5054099;28;1132;-67
2021/04/24 05:58:49;;;;;;;;;;;20.90;55.80;;;;;;5057065;28;1967;-66
2021/04/24 06:01:14;;;;;;;;;;;20.90;55.80;;;;;;5056706;28;1188;-66
2021/04/24 06:03:40;;;;;;;;;;;20.80;55.80;;;;;;5038940;28;1239;-66
2021/04/24 06:06:05;;;;;;;;;;;20.80;55.80;;;;;;5038624;28;1206;-67
2021/04/24 06:08:31;;;;;;;;;;;20.80;55.80;;;;;;5055487;28;1130;-66
2021/04/24 06:10:56;;;;;;;;;;;20.80;55.80;;;;;;5056425;28;1283;-66
2021/04/24 06:13:22;;;;;;;;;;;20.80;55.90;;;;;;5038283;28;1081;-67
2021/04/24 06:15:48;;;;;;;;;;;20.80;55.90;;;;;;5038494;28;1049;-67
2021/04/24 06:18:14;;;;;;;;;;;20.80;56.00;;;;;;5056516;28;1119;-65
2021/04/24 06:20:40;;;;;;;;;;;20.80;56.00;;;;;;5038484;28;1965;-66
2021/04/24 06:23:05;;;;;;;;;;;20.80;56.00;;;;;;5045335;28;1104;-67
2021/04/24 06:25:30;;;;;;;;;;;20.80;56.00;;;;;;5054774;28;1191;-66
2021/04/24 06:27:56;;;;;;;;;;;20.80;56.10;;;;;;5056053;28;1096;-67
2021/04/24 06:30:21;;;;;;;;;;;20.80;56.10;;;;;;5056113;28;1201;-66
2021/04/24 06:32:48;;;;;;;;;;;20.80;56.20;;;;;;5054894;28;1392;-66
2021/04/24 06:35:13;;;;;;;;;;;20.70;56.10;;;;;;5046430;28;1854;-67
2021/04/24 06:37:39;;;;;;;;;;;20.70;56.10;;;;;;5052557;28;1284;-66
2021/04/24 06:40:05;;;;;;;;;;;20.70;56.20;;;;;;5051498;28;1906;-68
2021/04/24 06:42:30;;;;;;;;;;;20.70;56.20;;;;;;5055603;28;1096;-68
2021/04/24 06:44:55;;;;;;;;;;;20.70;56.20;;;;;;5061572;28;1103;-66
2021/04/24 06:47:21;;;;;;;;;;;20.70;56.30;;;;;;5075484;28;1060;-67
2021/04/24 06:49:46;;;;;;;;;;;20.70;56.30;;;;;;5064195;28;2129;-65
2021/04/24 06:52:12;;;;;;;;;;;20.60;56.30;;;;;;5052601;28;949;-66
2021/04/24 06:54:37;;;;;;;;;;;20.70;56.40;;;;;;5065819;28;1130;-66
2021/04/24 06:57:03;;;;;;;;;;;20.60;56.30;;;;;;5075271;28;1076;-67
2021/04/24 06:59:28;;;;;;;;;;;20.60;56.30;;;;;;5075538;28;1910;-66
2021/04/24 07:01:53;;;;;;;;;;;20.60;56.30;;;;;;5056415;28;1004;-66
2021/04/24 07:04:19;;;;;;;;;;;20.60;56.40;;;;;;5075667;28;1055;-66
2021/04/24 07:06:45;;;;;;;;;;;20.60;56.40;;;;;;5058619;28;2040;-65
2021/04/24 07:09:10;;;;;;;;;;;20.60;56.40;;;;;;5056733;28;1271;-65
2021/04/24 07:11:36;;;;;;;;;;;20.60;56.40;;;;;;5048605;28;1077;-66
2021/04/24 07:14:01;;;;;;;;;;;20.60;56.40;;;;;;5046481;28;1194;-66
2021/04/24 07:16:26;;;;;;;;;;;20.50;56.40;;;;;;5067717;28;1103;-65
2021/04/24 07:18:52;;;;;;;;;;;20.60;56.50;;;;;;5051533;28;1967;-66
2021/04/24 07:21:17;;;;;;;;;;;20.60;56.50;;;;;;5055176;28;1198;-65
2021/04/24 07:23:43;;;;;;;;;;;20.50;56.50;;;;;;5044550;28;1119;-65
2021/04/24 07:26:08;;;;;;;;;;;20.50;56.50;;;;;;5054701;28;1120;-66
2021/04/24 07:28:34;;;;;;;;;;;20.50;56.50;;;;;;5037328;28;1203;-65
2021/04/24 07:30:59;;;;;;;;;;;20.50;56.50;;;;;;5056503;28;1191;-65
2021/04/24 07:33:25;;;;;;;;;;;20.50;56.60;;;;;;5056984;28;1172;-65
2021/04/24 07:35:50;;;;;;;;;;;20.50;56.60;;;;;;5074766;28;1111;-65
2021/04/24 07:38:16;;;;;;;;;;;20.50;56.60;;;;;;5057119;28;1147;-67
2021/04/24 07:40:41;;;;;;;;;;;20.50;56.60;;;;;;5074569;28;1906;-66
2021/04/24 07:43:07;;;;;;;;;;;20.50;56.60;;;;;;5074891;28;1083;-66
2021/04/24 07:45:32;;;;;;;;;;;20.50;56.70;;;;;;5074513;28;1075;-66
2021/04/24 07:47:58;;;;;;;;;;;20.50;56.70;;;;;;5074861;28;1127;-65
2021/04/24 07:50:23;;;;;;;;;;;20.50;56.70;;;;;;5074562;28;1289;-66
2021/04/24 07:52:49;;;;;;;;;;;20.40;56.70;;;;;;5074635;28;1142;-66
2021/04/24 07:55:14;;;;;;;;;;;20.40;56.70;;;;;;5074234;28;1083;-65
2021/04/24 07:57:40;;;;;;;;;;;20.40;56.70;;;;;;5074487;28;1138;-66
2021/04/24 08:00:06;;;;;;;;;;;20.40;56.70;;;;;;5074372;28;1910;-66
2021/04/24 08:02:31;;;;;;;;;;;20.40;56.70;;;;;;5056634;28;1392;-66
2021/04/24 08:04:57;;;;;;;;;;;20.40;56.70;;;;;;5074508;28;1059;-66
2021/04/24 08:07:22;;;;;;;;;;;20.40;56.80;;;;;;5055419;28;1273;-67
2021/04/24 08:09:47;;;;;;;;;;;20.40;56.80;;;;;;5054244;28;1340;-66
2021/04/24 08:12:13;;;;;;;;;;;20.40;56.90;;;;;;5054143;28;1134;-66
2021/04/24 08:14:41;;;;;;;;;;;20.40;56.80;;;;;;5054095;28;1163;-66
2021/04/24 08:17:07;;;;;;;;;;;20.40;56.80;;;;;;5053849;28;1112;-65
2021/04/24 08:19:32;;;;;;;;;;;20.40;56.90;;;;;;5053930;28;1961;-66
2021/04/24 08:21:59;;;;;;;;;;;20.40;56.90;;;;;;5051039;28;1225;-66
2021/04/24 08:24:24;;;;;;;;;;;20.40;56.90;;;;;;5053092;28;1072;-66
2021/04/24 08:26:49;;;;;;;;;;;20.40;57.50;;;;;;5053870;28;1057;-65
2021/04/24 08:29:15;;;;;;;;;;;20.40;56.90;;;;;;5047983;28;1939;-66
2021/04/24 08:31:42;;;;;;;;;;;20.40;57.00;;;;;;5049838;28;1065;-67
2021/04/24 08:34:08;;;;;;;;;;;20.40;57.00;;;;;;5060564;28;1243;-66
2021/04/24 08:36:34;;;;;;;;;;;20.30;56.90;;;;;;5052787;28;1120;-65
2021/04/24 08:38:59;;;;;;;;;;;20.30;57.00;;;;;;5051305;28;1905;-66
2021/04/24 08:41:24;;;;;;;;;;;20.30;57.00;;;;;;5052634;28;1208;-66
2021/04/24 08:43:55;;;;;;;;;;;20.30;57.00;;;;;;5053744;28;1151;-65
2021/04/24 08:46:21;;;;;;;;;;;20.30;57.00;;;;;;5053343;28;1092;-66
2021/04/24 08:48:46;;;;;;;;;;;20.30;57.00;;;;;;5036015;28;1152;-66
2021/04/24 08:51:12;;;;;;;;;;;20.30;57.00;;;;;;5035698;28;2061;-66
2021/04/24 08:53:37;;;;;;;;;;;20.30;57.10;;;;;;5039348;28;1283;-66
2021/04/24 08:56:03;;;;;;;;;;;20.30;57.10;;;;;;5057535;28;1100;-66
2021/04/24 08:58:28;;;;;;;;;;;20.30;57.10;;;;;;5058357;28;1036;-65
2021/04/24 09:00:53;;;;;;;;;;;20.30;57.10;;;;;;5071975;28;1910;-66
2021/04/24 09:03:22;;;;;;;;;;;20.30;57.10;;;;;;5073600;28;1127;-65
2021/04/24 09:05:51;;;;;;;;;;;20.30;57.20;;;;;;5049675;28;1111;-65
2021/04/24 09:08:24;;;;;;;;;;;20.30;57.10;;;;;;5052952;28;1095;-65
2021/04/24 09:10:49;;;;;;;;;;;20.30;57.20;;;;;;5053250;28;1179;-65
2021/04/24 09:13:19;;;;;;;;;;;20.30;57.20;;;;;;5052934;28;1127;-64
2021/04/24 09:15:45;;;;;;;;;;;20.30;57.20;;;;;;5052963;28;1151;-63
2021/04/24 09:18:12;;;;;;;;;;;20.30;57.20;;;;;;5053127;28;1131;-63
2021/04/24 09:20:40;;;;;;;;;;;20.20;57.20;;;;;;5035300;28;1950;-64
2021/04/24 09:23:06;;;;;;;;;;;20.20;57.20;;;;;;5041802;28;1119;-63
2021/04/24 09:25:33;;;;;;;;;;;20.20;57.20;;;;;;5052810;28;1084;-63
2021/04/24 09:27:59;;;;;;;;;;;20.30;57.30;;;;;;5035252;28;1072;-63
2021/04/24 09:30:27;;;;;;;;;;;20.20;57.20;;;;;;5052664;28;1205;-63
2021/04/24 09:32:53;;;;;;;;;;;20.20;57.20;;;;;;5053028;28;1108;-63
2021/04/24 09:35:21;;;;;;;;;;;20.20;57.20;;;;;;5052347;28;1104;-63
2021/04/24 09:37:53;;;;;;;;;;;20.20;57.30;;;;;;5052669;28;1096;-63
2021/04/24 09:40:19;;;;;;;;;;;20.20;57.40;;;;;;5052721;28;1901;-63
2021/04/24 09:42:44;;;;;;;;;;;20.20;57.30;;;;;;5052685;28;1199;-63
2021/04/24 09:45:28;;;;;;;;;;;20.20;57.30;;;;;;5052770;28;1072;-63
2021/04/24 09:47:53;;;;;;;;;;;20.20;57.30;;;;;;5052473;28;1104;-63
2021/04/24 09:50:20;;;;;;;;;;;20.20;57.30;;;;;;5034635;28;1292;-64
2021/04/24 09:52:46;;;;;;;;;;;20.20;57.30;;;;;;5052876;28;1215;-63
2021/04/24 09:55:15;;;;;;;;;;;20.20;57.30;;;;;;5034699;28;1124;-64
2021/04/24 09:57:41;;;;;;;;;;;20.20;57.30;;;;;;5052520;28;1060;-65
2021/04/24 10:00:07;;;;;;;;;;;20.20;57.30;;;;;;5052479;28;1965;-63
2021/04/24 10:02:40;;;;;;;;;;;20.20;57.40;;;;;;5052491;28;1049;-64
2021/04/24 10:05:10;;;;;;;;;;;20.20;57.40;;;;;;5034609;28;1073;-66
2021/04/24 10:07:36;;;;;;;;;;;20.10;57.40;;;;;;5039629;28;1097;-64
2021/04/24 10:10:02;;;;;;;;;;;20.20;57.40;;;;;;5052427;28;1346;-64
2021/04/24 10:12:27;;;;;;;;;;;20.10;58.00;;;;;;5052657;28;1131;-64
2021/04/24 10:14:53;;;;;;;;;;;20.20;57.40;;;;;;5051871;28;1167;-63
2021/04/24 10:17:18;;;;;;;;;;;20.20;57.40;;;;;;5052311;28;1068;-64
2021/04/24 10:19:44;;;;;;;;;;;20.20;57.40;;;;;;5051117;28;1906;-63
2021/04/24 10:22:11;;;;;;;;;;;20.20;57.40;;;;;;5013376;28;1497;-64
2021/04/24 10:24:37;;;;;;;;;;;20.10;57.40;;;;;;5045527;28;1065;-63
2021/04/24 10:27:03;;;;;;;;;;;20.20;57.40;;;;;;5027302;28;1326;-63
2021/04/24 10:29:28;;;;;;;;;;;20.10;57.40;;;;;;5052025;28;1272;-63
2021/04/24 10:31:53;;;;;;;;;;;20.10;57.40;;;;;;5052178;28;1112;-63
2021/04/24 10:34:19;;;;;;;;;;;20.10;57.40;;;;;;5051150;28;1050;-64
2021/04/24 10:36:44;;;;;;;;;;;20.10;57.40;;;;;;5051942;28;1088;-64
2021/04/24 10:39:14;;;;;;;;;;;20.10;57.40;;;;;;5052096;28;1906;-64
2021/04/24 10:41:40;;;;;;;;;;;20.10;57.40;;;;;;5052656;28;1119;-63
2021/04/24 10:44:07;;;;;;;;;;;20.10;57.40;;;;;;5055618;28;1088;-63
2021/04/24 10:46:34;;;;;;;;;;;20.10;57.40;;;;;;5054685;28;1075;-64
2021/04/24 10:49:18;;;;;;;;;;;20.10;57.40;;;;;;5055548;28;989;-64
2021/04/24 10:51:53;;;;;;;;;;;20.10;57.40;;;;;;5056093;28;1139;-64
2021/04/24 10:54:18;;;;;;;;;;;20.10;57.40;;;;;;5054413;28;1172;-63
2021/04/24 10:56:44;;;;;;;;;;;20.10;57.40;;;;;;5055146;28;1155;-64
2021/04/24 10:59:19;;;;;;;;;;;20.10;57.40;;;;;;5037219;28;1910;-65
2021/04/24 11:02:03;;;;;;;;;;;20.10;57.40;;;;;;5067647;28;1080;-63
2021/04/24 11:04:38;;;;;;;;;;;20.10;57.40;;;;;;5057829;28;1200;-63
2021/04/24 11:07:14;;;;;;;;;;;20.10;57.40;;;;;;5058907;28;1224;-63
2021/04/24 11:09:39;;;;;;;;;;;20.10;57.40;;;;;;5055760;28;1366;-63
2021/04/24 11:12:06;;;;;;;;;;;20.10;57.50;;;;;;5037607;28;1117;-63
2021/04/24 11:14:31;;;;;;;;;;;20.10;57.50;;;;;;5034248;28;1238;-63
2021/04/24 11:16:57;;;;;;;;;;;20.10;57.50;;;;;;5037060;28;1282;-63
2021/04/24 11:19:43;;;;;;;;;;;20.10;58.00;;;;;;5064649;28;1906;-64
2021/04/24 11:22:27;;;;;;;;;;;20.10;57.50;;;;;;5052941;28;1214;-64
2021/04/24 11:24:52;;;;;;;;;;;20.10;57.50;;;;;;5058959;28;1575;-63
2021/04/24 11:27:18;;;;;;;;;;;20.10;57.50;;;;;;5070728;28;1537;-64
2021/04/24 11:29:43;;;;;;;;;;;20.10;57.50;;;;;;5059274;28;1384;-64
2021/04/24 11:32:19;;;;;;;;;;;20.10;57.50;;;;;;5054959;28;1088;-64
2021/04/24 11:34:45;;;;;;;;;;;20.10;57.50;;;;;;5054745;28;1096;-65
2021/04/24 11:37:33;;;;;;;;;;;20.10;57.50;;;;;;5037003;28;1171;-64
2021/04/24 11:40:08;;;;;;;;;;;20.10;57.50;;;;;;5036929;28;1898;-64
2021/04/24 11:42:37;;;;;;;;;;;20.10;57.50;;;;;;5054727;28;1724;-64
2021/04/24 11:45:03;;;;;;;;;;;20.10;57.50;;;;;;5036986;28;1085;-64
2021/04/24 11:47:43;;;;;;;;;;;20.10;57.50;;;;;;5054453;28;1194;-64
2021/04/24 11:50:10;;;;;;;;;;;20.10;57.50;;;;;;5055132;28;1246;-65
2021/04/24 11:52:35;;;;;;;;;;;20.10;57.50;;;;;;5036897;28;1164;-64
2021/04/24 11:55:00;;;;;;;;;;;20.10;57.50;;;;;;5036245;28;1144;-65
2021/04/24 11:57:27;;;;;;;;;;;20.10;57.50;;;;;;5054685;28;1175;-65
2021/04/24 11:59:52;;;;;;;;;;;20.10;57.50;;;;;;5054584;28;1918;-65
2021/04/24 12:02:18;;;;;;;;;;;20.10;57.60;;;;;;5054411;28;1199;-65
2021/04/24 12:04:44;;;;;;;;;;;20.10;57.60;;;;;;5054478;28;1162;-65
2021/04/24 12:07:13;;;;;;;;;;;20.10;57.60;;;;;;5036411;28;1183;-66
2021/04/24 12:09:55;;;;;;;;;;;20.10;57.60;;;;;;5036436;28;1383;-65
2021/04/24 12:12:34;;;;;;;;;;;20.10;57.60;;;;;;5036580;28;1159;-64
2021/04/24 12:15:03;;;;;;;;;;;20.10;57.60;;;;;;5053783;28;1103;-65
2021/04/24 12:17:28;;;;;;;;;;;20.10;57.60;;;;;;5054142;28;1072;-64
2021/04/24 12:19:54;;;;;;;;;;;20.10;57.60;;;;;;5053884;28;1913;-65
2021/04/24 12:22:20;;;;;;;;;;;20.00;57.60;;;;;;5048399;28;1119;-65
2021/04/24 12:24:59;;;;;;;;;;;20.10;57.60;;;;;;5048782;28;1123;-65
2021/04/24 12:27:34;;;;;;;;;;;20.00;57.60;;;;;;5053774;28;1091;-65
2021/04/24 12:30:01;;;;;;;;;;;20.00;57.60;;;;;;5053700;28;1354;-66
2021/04/24 12:32:31;;;;;;;;;;;20.00;57.60;;;;;;5052284;28;1370;-66
2021/04/24 12:35:02;;;;;;;;;;;20.00;57.70;;;;;;5053586;28;1210;-65
2021/04/24 12:37:28;;;;;;;;;;;20.00;57.70;;;;;;5053453;28;1060;-65
2021/04/24 12:40:06;;;;;;;;;;;20.00;57.70;;;;;;5035918;28;1906;-66
2021/04/24 12:42:31;;;;;;;;;;;20.00;57.70;;;;;;5053694;28;1064;-65
2021/04/24 12:44:57;;;;;;;;;;;20.00;57.70;;;;;;5053995;28;1140;-65
2021/04/24 12:47:23;;;;;;;;;;;20.00;57.70;;;;;;5053366;28;1112;-65
2021/04/24 12:49:48;;;;;;;;;;;20.00;57.70;;;;;;5035670;28;1255;-66
2021/04/24 12:52:14;;;;;;;;;;;20.00;57.80;;;;;;5035913;28;1081;-66
2021/04/24 12:54:39;;;;;;;;;;;20.00;57.80;;;;;;5053519;28;1148;-64
2021/04/24 12:57:08;;;;;;;;;;;20.00;57.80;;;;;;5053268;28;1076;-64
2021/04/24 12:59:34;;;;;;;;;;;20.00;57.90;;;;;;5053588;28;1975;-64
2021/04/24 13:01:59;;;;;;;;;;;19.90;57.80;;;;;;5053443;28;1116;-64
2021/04/24 13:04:24;;;;;;;;;;;19.90;57.80;;;;;;5041934;28;1144;-65
2021/04/24 13:06:53;;;;;;;;;;;19.90;58.40;;;;;;5040178;28;1237;-63
2021/04/24 13:09:20;;;;;;;;;;;19.90;57.80;;;;;;5053526;28;1353;-64
2021/04/24 13:11:47;;;;;;;;;;;19.90;57.90;;;;;;5051920;28;1183;-63
2021/04/24 13:14:13;;;;;;;;;;;19.90;57.90;;;;;;5045261;28;1072;-63
2021/04/24 13:16:38;;;;;;;;;;;19.90;57.90;;;;;;5048073;28;1111;-63
2021/04/24 13:19:03;;;;;;;;;;;19.90;57.90;;;;;;5035528;28;1906;-64
2021/04/24 13:21:30;;;;;;;;;;;19.90;57.90;;;;;;5053019;28;1188;-64
2021/04/24 13:24:08;;;;;;;;;;;19.90;57.90;;;;;;5035334;28;1155;-63
2021/04/24 13:26:38;;;;;;;;;;;19.90;57.90;;;;;;5052400;28;1092;-63
2021/04/24 13:29:08;;;;;;;;;;;19.90;57.90;;;;;;5035216;28;1077;-64
2021/04/24 13:31:33;;;;;;;;;;;19.90;58.00;;;;;;5052849;28;1294;-63
2021/04/24 13:33:58;;;;;;;;;;;19.90;58.00;;;;;;5035117;28;1088;-63
2021/04/24 13:36:24;;;;;;;;;;;19.90;58.00;;;;;;5052317;28;1072;-64
2021/04/24 13:38:54;;;;;;;;;;;19.90;58.00;;;;;;5052912;28;1151;-63
2021/04/24 13:41:19;;;;;;;;;;;19.80;58.00;;;;;;5034616;28;1699;-63
2021/04/24 13:43:45;;;;;;;;;;;19.80;58.00;;;;;;5052919;28;1072;-63
2021/04/24 13:46:20;;;;;;;;;;;19.80;58.00;;;;;;5034688;28;1196;-63
2021/04/24 13:48:46;;;;;;;;;;;19.80;58.00;;;;;;5052920;28;1056;-63
2021/04/24 13:51:11;;;;;;;;;;;19.80;58.00;;;;;;5034637;28;1372;-63
2021/04/24 13:53:37;;;;;;;;;;;19.80;58.00;;;;;;5052593;28;1138;-64
2021/04/24 13:56:02;;;;;;;;;;;19.80;58.00;;;;;;5052308;28;1215;-64
2021/04/24 13:58:28;;;;;;;;;;;19.80;58.10;;;;;;5052785;28;1072;-63
2021/04/24 14:00:53;;;;;;;;;;;19.80;58.10;;;;;;5052463;28;1914;-64
2021/04/24 14:03:18;;;;;;;;;;;19.80;58.10;;;;;;5052667;28;1131;-63
2021/04/24 14:05:44;;;;;;;;;;;19.80;58.10;;;;;;5052131;28;1168;-63
2021/04/24 14:08:09;;;;;;;;;;;19.80;58.10;;;;;;5052510;28;1135;-63
2021/04/24 14:10:35;;;;;;;;;;;19.80;58.10;;;;;;5052708;28;1334;-63
2021/04/24 14:13:02;;;;;;;;;;;19.80;58.20;;;;;;5052657;28;1076;-63
2021/04/24 14:15:27;;;;;;;;;;;19.80;58.10;;;;;;5051905;28;1228;-65
2021/04/24 14:17:56;;;;;;;;;;;19.80;58.20;;;;;;5055063;28;1131;-63
2021/04/24 14:20:21;;;;;;;;;;;19.80;58.20;;;;;;5038451;28;1909;-63
2021/04/24 14:22:47;;;;;;;;;;;19.80;58.20;;;;;;5046478;28;1068;-63
2021/04/24 14:25:12;;;;;;;;;;;19.70;58.20;;;;;;5054928;28;1171;-65
2021/04/24 14:27:41;;;;;;;;;;;19.80;58.20;;;;;;5056417;28;1119;-64